createdAt,value
2023-04-15T00:00:08.518Z,6.60
2023-04-15T00:03:10.599Z,6.50
2023-04-15T00:06:13.557Z,6.97
2023-04-15T00:09:15.704Z,6.63
2023-04-15T00:12:17.676Z,7.13
2023-04-15T00:15:20.087Z,6.53
2023-04-15T00:18:22.142Z,7.03
2023-04-15T00:21:23.993Z,6.87
2023-04-15T00:24:25.839Z,6.50
2023-04-15T00:27:27.714Z,7.03
2023-04-15T00:30:29.546Z,6.87
2023-04-15T00:33:31.904Z,7.10
2023-04-15T00:36:35.126Z,7.27
2023-04-15T00:39:36.917Z,7.13
2023-04-15T00:42:39.782Z,6.40
2023-04-15T00:45:41.965Z,6.97
2023-04-15T00:48:44.310Z,7.23
2023-04-15T00:51:46.472Z,7.00
2023-04-15T00:54:48.508Z,7.17
2023-04-15T00:57:50.870Z,7.23
2023-04-15T01:00:54.557Z,8.13
2023-04-15T01:04:00.395Z,7.77
2023-04-15T01:07:02.657Z,7.33
2023-04-15T01:10:05.130Z,7.60
2023-04-15T01:13:07.026Z,9.13
2023-04-15T01:16:09.654Z,8.37
2023-04-15T01:19:14.442Z,8.23
2023-04-15T01:22:16.620Z,7.40
2023-04-15T01:25:20.229Z,7.20
2023-04-15T01:28:22.392Z,7.40
2023-04-15T01:31:24.340Z,7.73
2023-04-15T01:34:26.517Z,7.37
2023-04-15T01:37:28.912Z,7.40
2023-04-15T01:40:31.086Z,8.10
2023-04-15T01:43:33.050Z,7.30
2023-04-15T01:46:37.012Z,6.80
2023-04-15T01:49:38.977Z,7.10
2023-04-15T01:52:41.523Z,7.47
2023-04-15T01:55:43.382Z,8.20
2023-04-15T01:58:45.641Z,7.80
2023-04-15T02:01:47.546Z,8.10
2023-04-15T02:04:50.311Z,8.10
2023-04-15T02:07:52.612Z,7.43
2023-04-15T02:10:54.448Z,7.77
2023-04-15T02:13:56.575Z,7.70
2023-04-15T02:16:58.665Z,7.73
2023-04-15T02:20:00.711Z,8.07
2023-04-15T02:23:03.167Z,7.60
2023-04-15T02:26:05.784Z,8.00
2023-04-15T02:29:07.811Z,8.40
2023-04-15T02:32:09.923Z,7.80
2023-04-15T02:35:11.980Z,7.13
2023-04-15T02:38:14.814Z,7.47
2023-04-15T02:41:16.716Z,7.23
2023-04-15T02:44:22.093Z,7.50
2023-04-15T02:47:23.850Z,7.57
2023-04-15T02:50:25.913Z,7.40
2023-04-15T02:53:27.639Z,7.90
2023-04-15T02:56:30.328Z,7.73
2023-04-15T02:59:32.240Z,7.53
2023-04-15T03:02:35.663Z,7.40
2023-04-15T03:05:39.264Z,7.47
2023-04-15T03:08:41.635Z,7.80
2023-04-15T03:11:43.727Z,8.17
2023-04-15T03:14:45.561Z,7.43
2023-04-15T03:17:49.651Z,6.97
2023-04-15T03:20:51.606Z,7.93
2023-04-15T03:23:53.514Z,7.10
2023-04-15T03:26:56.362Z,7.43
2023-04-15T03:29:58.261Z,7.00
2023-04-15T03:33:00.147Z,8.30
2023-04-15T03:36:02.029Z,8.30
2023-04-15T03:39:04.290Z,8.00
2023-04-15T03:42:06.251Z,8.50
2023-04-15T03:45:08.395Z,8.60
2023-04-15T03:48:16.506Z,8.70
2023-04-15T03:51:19.483Z,8.90
2023-04-15T03:54:21.755Z,8.87
2023-04-15T03:57:24.020Z,8.63
2023-04-15T04:00:26.233Z,8.13
2023-04-15T04:03:28.264Z,8.03
2023-04-15T04:06:31.155Z,7.67
2023-04-15T04:09:33.264Z,7.60
2023-04-15T04:12:35.075Z,7.30
2023-04-15T04:15:36.931Z,8.07
2023-04-15T04:18:38.771Z,7.87
2023-04-15T04:21:40.798Z,7.27
2023-04-15T04:24:42.640Z,7.60
2023-04-15T04:27:45.443Z,7.30
2023-04-15T04:30:47.368Z,7.67
2023-04-15T04:33:49.609Z,8.20
2023-04-15T04:36:51.607Z,7.73
2023-04-15T04:39:53.378Z,7.47
2023-04-15T04:42:55.260Z,8.00
2023-04-15T04:45:57.089Z,7.93
2023-04-15T04:48:58.979Z,8.10
2023-04-15T04:52:00.972Z,8.13
2023-04-15T04:55:02.915Z,8.87
2023-04-15T04:58:04.915Z,8.63
2023-04-15T05:01:06.695Z,8.13
2023-04-15T05:04:08.754Z,8.73
2023-04-15T05:07:11.034Z,8.83
2023-04-15T05:10:13.074Z,8.33
2023-04-15T05:13:15.184Z,9.37
2023-04-15T05:16:17.736Z,8.93
2023-04-15T05:19:19.825Z,9.43
2023-04-15T05:22:21.676Z,9.50
2023-04-15T05:25:23.585Z,9.70
2023-04-15T05:28:28.511Z,9.97
2023-04-15T05:31:30.800Z,11.23
2023-04-15T05:34:32.797Z,9.87
2023-04-15T05:37:34.611Z,10.80
2023-04-15T05:40:37.105Z,10.23
2023-04-15T05:43:39.005Z,9.87
2023-04-15T05:46:41.048Z,10.50
2023-04-15T05:49:42.927Z,10.33
2023-04-15T05:52:45.950Z,10.23
2023-04-15T05:55:47.866Z,10.53
2023-04-15T05:58:50.144Z,10.17
2023-04-15T06:01:53.743Z,10.97
2023-04-15T06:04:55.611Z,10.90
2023-04-15T06:07:57.788Z,11.67
2023-04-15T06:11:00.621Z,10.57
2023-04-15T06:14:02.491Z,11.60
2023-04-15T06:17:04.407Z,10.53
2023-04-15T06:20:06.578Z,10.77
2023-04-15T06:23:08.347Z,10.90
2023-04-15T06:26:10.276Z,11.63
2023-04-15T06:29:12.135Z,10.83
2023-04-15T06:32:14.116Z,11.20
2023-04-15T06:35:16.107Z,11.27
2023-04-15T06:38:17.962Z,10.97
2023-04-15T06:41:19.894Z,11.47
2023-04-15T06:44:22.294Z,11.40
2023-04-15T06:47:24.315Z,11.27
2023-04-15T06:50:26.442Z,11.37
2023-04-15T06:53:28.306Z,10.77
2023-04-15T06:56:30.564Z,12.23
2023-04-15T06:59:32.845Z,10.87
2023-04-15T07:02:34.831Z,11.23
2023-04-15T07:05:37.823Z,11.77
2023-04-15T07:08:39.726Z,11.43
2023-04-15T07:11:41.821Z,11.07
2023-04-15T07:14:43.891Z,12.40
2023-04-15T07:17:45.697Z,12.37
2023-04-15T07:20:48.084Z,12.20
2023-04-15T07:23:50.007Z,11.97
2023-04-15T07:26:52.219Z,12.20
2023-04-15T07:29:54.002Z,11.43
2023-04-15T07:32:56.423Z,11.70
2023-04-15T07:35:58.384Z,12.00
2023-04-15T07:39:02.415Z,11.93
2023-04-15T07:42:04.796Z,11.30
2023-04-15T07:45:07.686Z,12.13
2023-04-15T07:48:09.500Z,11.87
2023-04-15T07:51:13.241Z,11.73
2023-04-15T07:54:18.149Z,10.57
2023-04-15T07:57:21.144Z,10.97
2023-04-15T08:00:24.075Z,10.50
2023-04-15T08:03:27.882Z,10.07
2023-04-15T08:06:29.941Z,9.67
2023-04-15T08:09:31.877Z,9.43
2023-04-15T08:12:33.920Z,9.40
2023-04-15T08:15:36.266Z,8.53
2023-04-15T08:18:38.365Z,9.00
2023-04-15T08:21:41.189Z,8.37
2023-04-15T08:24:43.446Z,8.23
2023-04-15T08:27:46.613Z,8.00
2023-04-15T08:30:48.462Z,7.83
2023-04-15T08:33:52.646Z,7.63
2023-04-15T08:36:54.654Z,7.37
2023-04-15T08:39:56.918Z,6.83
2023-04-15T08:43:00.869Z,7.23
2023-04-15T08:46:04.646Z,6.97
2023-04-15T08:49:11.249Z,6.83
2023-04-15T08:52:13.187Z,7.23
2023-04-15T08:55:16.110Z,6.83
2023-04-15T08:58:19.081Z,6.70
2023-04-15T09:01:21.725Z,7.33
2023-04-15T09:04:23.629Z,6.90
2023-04-15T09:07:25.598Z,7.30
2023-04-15T09:10:28.864Z,6.80
2023-04-15T09:13:31.198Z,7.20
2023-04-15T09:16:53.396Z,6.80
2023-04-15T09:20:13.610Z,6.70
2023-04-15T09:23:17.555Z,6.97
2023-04-15T09:26:19.454Z,7.20
2023-04-15T09:29:24.506Z,6.83
2023-04-15T09:32:26.599Z,7.23
2023-04-15T09:35:28.948Z,7.20
2023-04-15T09:38:31.470Z,7.17
2023-04-15T09:41:33.656Z,6.97
2023-04-15T09:44:35.848Z,6.70
2023-04-15T09:47:38.279Z,6.20
2023-04-15T09:50:42.868Z,6.50
2023-04-15T09:53:44.708Z,6.67
2023-04-15T09:56:46.865Z,6.63
2023-04-15T09:59:48.648Z,6.20
2023-04-15T10:02:51.167Z,5.50
2023-04-15T10:05:54.245Z,6.10
2023-04-15T10:08:57.614Z,6.23
2023-04-15T10:11:59.467Z,5.90
2023-04-15T10:15:07.167Z,6.17
2023-04-15T10:18:11.552Z,5.80
2023-04-15T10:21:16.485Z,5.70
2023-04-15T10:24:18.971Z,5.53
2023-04-15T10:27:22.161Z,5.57
2023-04-15T10:30:24.328Z,5.43
2023-04-15T10:33:27.231Z,5.57
2023-04-15T10:36:29.804Z,5.50
2023-04-15T10:39:38.199Z,5.40
2023-04-15T10:42:40.131Z,5.73
2023-04-15T10:45:46.250Z,5.70
2023-04-15T10:48:50.321Z,5.57
2023-04-15T10:51:57.166Z,5.10
2023-04-15T10:55:11.075Z,5.03
2023-04-15T10:58:15.063Z,5.43
2023-04-15T11:01:16.922Z,5.57
2023-04-15T11:04:54.066Z,4.93
2023-04-15T11:07:57.410Z,4.53
2023-04-15T11:10:59.566Z,4.97
2023-04-15T11:14:03.182Z,4.83
2023-04-15T11:17:05.653Z,4.23
2023-04-15T11:20:09.119Z,4.30
2023-04-15T11:23:15.361Z,4.53
2023-04-15T11:26:17.741Z,4.10
2023-04-15T11:29:19.613Z,4.20
2023-04-15T11:32:22.026Z,3.67
2023-04-15T11:35:23.938Z,3.67
2023-04-15T11:38:25.832Z,4.10
2023-04-15T11:41:27.871Z,3.50
2023-04-15T11:44:29.710Z,3.50
2023-04-15T11:47:31.592Z,3.43
2023-04-15T11:50:34.071Z,3.47
2023-04-15T11:53:50.552Z,3.87
2023-04-15T11:56:53.629Z,3.40
2023-04-15T11:59:55.827Z,3.20
2023-04-15T12:03:43.721Z,3.30
2023-04-15T12:06:46.728Z,3.37
2023-04-15T12:09:57.045Z,3.17
2023-04-15T12:12:58.936Z,3.00
2023-04-15T12:16:00.884Z,3.47
2023-04-15T12:19:07.048Z,3.40
2023-04-15T12:22:17.699Z,3.10
2023-04-15T12:25:19.949Z,2.70
2023-04-15T12:28:21.762Z,2.83
2023-04-15T12:31:24.190Z,2.70
2023-04-15T12:34:27.223Z,2.60
2023-04-15T12:37:29.071Z,2.57
2023-04-15T12:40:31.036Z,2.60
2023-04-15T12:43:32.807Z,2.40
2023-04-15T12:46:35.002Z,2.50
2023-04-15T12:49:37.678Z,3.00
2023-04-15T12:52:39.507Z,3.00
2023-04-15T12:55:41.758Z,3.03
2023-04-15T12:58:43.871Z,2.70
2023-04-15T13:01:47.351Z,2.63
2023-04-15T13:04:49.360Z,2.70
2023-04-15T13:07:51.294Z,2.50
2023-04-15T13:10:53.116Z,2.80
2023-04-15T13:13:56.047Z,2.80
2023-04-15T13:16:59.173Z,2.30
2023-04-15T13:20:01.782Z,2.27
2023-04-15T13:23:03.575Z,1.90
2023-04-15T13:26:05.676Z,2.40
2023-04-15T13:29:07.571Z,2.10
2023-04-15T13:32:09.744Z,1.80
2023-04-15T13:35:11.663Z,2.00
2023-04-15T13:38:13.682Z,1.90
2023-04-15T13:41:15.461Z,1.83
2023-04-15T13:44:17.683Z,2.00
2023-04-15T13:47:20.525Z,1.80
2023-04-15T13:50:22.397Z,1.90
2023-04-15T13:53:38.363Z,2.30
2023-04-15T13:56:41.867Z,1.90
2023-04-15T13:59:44.173Z,2.10
2023-04-15T14:02:46.431Z,2.13
2023-04-15T14:05:48.323Z,2.10
2023-04-15T14:08:50.441Z,2.10
2023-04-15T14:11:52.464Z,1.90
2023-04-15T14:14:54.534Z,2.00
2023-04-15T14:17:56.616Z,2.00
2023-04-15T14:20:58.409Z,1.70
2023-04-15T14:24:00.411Z,1.73
2023-04-15T14:27:02.282Z,1.77
2023-04-15T14:30:04.634Z,1.60
2023-04-15T14:33:06.704Z,1.63
2023-04-15T14:36:09.920Z,1.80
2023-04-15T14:39:12.106Z,1.90
2023-04-15T14:42:14.127Z,2.00
2023-04-15T14:45:16.401Z,2.30
2023-04-15T14:48:18.256Z,1.93
2023-04-15T14:51:20.383Z,1.90
2023-04-15T14:54:22.588Z,2.20
2023-04-15T14:57:24.515Z,1.87
2023-04-15T15:00:26.580Z,1.70
2023-04-15T15:03:29.457Z,1.50
2023-04-15T15:06:31.666Z,1.63
2023-04-15T15:09:34.945Z,1.70
2023-04-15T15:12:37.127Z,1.40
2023-04-15T15:15:39.449Z,1.30
2023-04-15T15:18:41.472Z,1.70
2023-04-15T15:21:44.112Z,1.50
2023-04-15T15:24:45.921Z,1.33
2023-04-15T15:27:48.095Z,1.30
2023-04-15T15:30:49.926Z,1.30
2023-04-15T15:33:55.983Z,1.30
2023-04-15T15:36:58.294Z,1.47
2023-04-15T15:40:00.994Z,1.10
2023-04-15T15:43:02.930Z,1.20
2023-04-15T15:46:04.817Z,1.30
2023-04-15T15:49:06.726Z,1.20
2023-04-15T15:52:09.150Z,1.03
2023-04-15T15:55:11.159Z,1.00
2023-04-15T15:58:12.998Z,1.17
2023-04-15T16:01:14.869Z,1.00
2023-04-15T16:04:16.934Z,0.90
2023-04-15T16:07:18.991Z,1.23
2023-04-15T16:10:21.008Z,1.10
2023-04-15T16:13:22.933Z,1.20
2023-04-15T16:16:24.829Z,2.13
2023-04-15T16:19:26.717Z,4.07
2023-04-15T16:22:29.190Z,15.07
2023-04-15T16:25:30.914Z,20.33
2023-04-15T16:28:32.716Z,8.03
2023-04-15T16:31:35.984Z,4.53
2023-04-15T16:34:39.294Z,2.30
2023-04-15T16:37:41.104Z,1.90
2023-04-15T16:40:43.317Z,2.30
2023-04-15T16:43:45.995Z,2.67
2023-04-15T16:46:47.754Z,1.70
2023-04-15T16:49:50.643Z,1.20
2023-04-15T16:52:53.055Z,1.50
2023-04-15T16:55:54.880Z,1.23
2023-04-15T16:58:56.689Z,1.30
2023-04-15T17:01:58.617Z,1.30
2023-04-15T17:05:00.554Z,1.30
2023-04-15T17:08:03.250Z,1.20
2023-04-15T17:11:05.031Z,1.20
2023-04-15T17:14:10.720Z,1.20
2023-04-15T17:17:12.541Z,1.47
2023-04-15T17:20:14.816Z,1.57
2023-04-15T17:23:17.156Z,1.23
2023-04-15T17:26:19.493Z,1.03
2023-04-15T17:29:21.374Z,1.07
2023-04-15T17:32:23.876Z,1.10
2023-04-15T17:35:26.336Z,1.30
2023-04-15T17:38:28.140Z,1.40
2023-04-15T17:41:29.967Z,1.10
2023-04-15T17:44:31.813Z,1.27
2023-04-15T17:47:33.939Z,1.10
2023-04-15T17:50:35.931Z,1.37
2023-04-15T17:53:37.797Z,1.23
2023-04-15T17:56:42.268Z,1.00
2023-04-15T17:59:45.147Z,1.00
2023-04-15T18:02:48.810Z,1.03
2023-04-15T18:05:51.040Z,1.00
2023-04-15T18:08:53.056Z,1.00
2023-04-15T18:11:54.814Z,1.00
2023-04-15T18:14:56.635Z,0.93
2023-04-15T18:18:00.291Z,1.30
2023-04-15T18:21:02.204Z,1.20
2023-04-15T18:24:04.419Z,1.07
2023-04-15T18:27:06.851Z,0.93
2023-04-15T18:30:11.144Z,1.33
2023-04-15T18:33:13.438Z,1.20
2023-04-15T18:36:15.245Z,1.30
2023-04-15T18:39:17.069Z,1.30
2023-04-15T18:42:18.806Z,1.57
2023-04-15T18:45:20.991Z,1.53
2023-04-15T18:48:23.167Z,1.80
2023-04-15T18:51:25.057Z,1.70
2023-04-15T18:54:27.292Z,2.00
2023-04-15T18:57:34.960Z,2.10
2023-04-15T19:00:41.732Z,1.87
2023-04-15T19:03:43.979Z,2.00
2023-04-15T19:06:48.058Z,1.70
2023-04-15T19:09:50.045Z,1.57
2023-04-15T19:12:51.807Z,1.60
2023-04-15T19:15:53.758Z,1.37
2023-04-15T19:18:55.553Z,1.37
2023-04-15T19:21:58.012Z,1.60
2023-04-15T19:24:59.785Z,1.57
2023-04-15T19:28:01.677Z,1.60
2023-04-15T19:31:03.862Z,1.80
2023-04-15T19:34:05.797Z,1.87
2023-04-15T19:37:07.842Z,1.90
2023-04-15T19:40:10.192Z,2.37
2023-04-15T19:43:12.162Z,1.87
2023-04-15T19:46:14.153Z,2.00
2023-04-15T19:49:16.902Z,1.90
2023-04-15T19:52:18.770Z,1.80
2023-04-15T19:55:20.566Z,2.10
2023-04-15T19:58:22.563Z,1.87
2023-04-15T20:01:25.929Z,2.07
2023-04-15T20:04:27.980Z,2.20
2023-04-15T20:07:30.075Z,2.23
2023-04-15T20:10:32.374Z,2.30
2023-04-15T20:13:34.583Z,6.00
2023-04-15T20:16:38.328Z,5.07
2023-04-15T20:19:40.227Z,2.80
2023-04-15T20:22:42.480Z,2.93
2023-04-15T20:25:44.269Z,2.50
2023-04-15T20:28:46.077Z,2.47
2023-04-15T20:31:48.124Z,2.57
2023-04-15T20:34:51.398Z,2.67
2023-04-15T20:37:53.398Z,2.53
2023-04-15T20:40:55.687Z,2.80
2023-04-15T20:43:57.472Z,2.40
2023-04-15T20:46:59.362Z,2.67
2023-04-15T20:50:01.474Z,3.07
2023-04-15T20:53:04.925Z,2.93
2023-04-15T20:56:06.824Z,2.87
2023-04-15T20:59:08.639Z,3.07
2023-04-15T21:02:10.724Z,3.20
2023-04-15T21:05:12.789Z,2.87
2023-04-15T21:08:15.037Z,3.37
2023-04-15T21:11:33.222Z,3.20
2023-04-15T21:14:40.803Z,2.97
2023-04-15T21:17:42.618Z,3.07
2023-04-15T21:20:44.483Z,2.83
2023-04-15T21:23:46.255Z,3.10
2023-04-15T21:26:48.248Z,3.10
2023-04-15T21:29:50.019Z,3.20
2023-04-15T21:32:51.889Z,3.40
2023-04-15T21:35:54.484Z,3.63
2023-04-15T21:38:56.423Z,3.63
2023-04-15T21:41:59.463Z,3.63
2023-04-15T21:45:01.457Z,3.60
2023-04-15T21:48:07.660Z,3.47
2023-04-15T21:51:10.494Z,3.20
2023-04-15T21:54:12.516Z,3.50
2023-04-15T21:57:14.418Z,3.30
2023-04-15T22:00:16.526Z,3.03
2023-04-15T22:03:18.564Z,3.67
2023-04-15T22:06:21.064Z,3.60
2023-04-15T22:09:23.027Z,3.57
2023-04-15T22:12:24.830Z,3.57
2023-04-15T22:15:27.025Z,3.20
2023-04-15T22:18:29.026Z,3.47
2023-04-15T22:21:31.735Z,3.77
2023-04-15T22:24:40.488Z,4.13
2023-04-15T22:27:42.553Z,3.87
2023-04-15T22:30:44.398Z,4.13
2023-04-15T22:33:46.196Z,4.30
2023-04-15T22:36:48.987Z,3.63
2023-04-15T22:39:51.886Z,4.07
2023-04-15T22:42:53.688Z,4.33
2023-04-15T22:45:55.706Z,4.47
2023-04-15T22:48:57.490Z,3.70
2023-04-15T22:51:59.254Z,3.97
2023-04-15T22:55:01.115Z,4.37
2023-04-15T22:58:02.986Z,4.63
2023-04-15T23:01:04.910Z,3.90
2023-04-15T23:04:09.490Z,3.70
2023-04-15T23:07:27.112Z,4.10
2023-04-15T23:10:29.404Z,4.40
2023-04-15T23:13:31.250Z,3.70
2023-04-15T23:16:33.146Z,4.20
2023-04-15T23:19:35.004Z,4.27
2023-04-15T23:22:37.877Z,3.70
2023-04-15T23:25:39.750Z,4.67
2023-04-15T23:28:41.595Z,4.77
2023-04-15T23:31:43.562Z,4.73
2023-04-15T23:34:45.396Z,5.50
2023-04-15T23:37:47.207Z,4.70
2023-04-15T23:40:50.631Z,5.73
2023-04-15T23:43:52.457Z,5.97
2023-04-15T23:46:54.262Z,4.40
2023-04-15T23:49:56.467Z,4.50
2023-04-15T23:52:58.879Z,5.50
2023-04-15T23:56:01.464Z,5.23
2023-04-15T23:59:03.242Z,5.47
